Latest Coastal Weather Observations for Low Isles

IDQ60701

Issued at 11:45 pm EST Thursday 18 September 2014 (issued every 10 minutes, with the page automatically refreshed every 10 minutes)

About coastal observations | Map of coastal stations | Coastal observations for QLD | Marine services | Other Formats
Station Details ID: 031037 Name: LOW ISLES LIGHTHOUSE Lat: -16.38 Lon: 145.56 Height: 2.9 m
Data from the previous 72 hours. | See also: Recent months at Low Isles
Date/Time
EST
Temp

°C
Wind Pressure Rain
since 9am
mm
Weather Cloud Vis
km
Sea
Height
m
Swell
Dir
 
Speed
knots
Gust
knots
hPa Trend Height
m
Period
s
Dir
18/11:30pm 22.3 SW 5 6 1016.9 - 0.0 - - - - - - -
18/11:00pm 22.3 WSW 4 5 1017.0 - 0.0 - - - - - - -
18/10:30pm 22.4 WSW 5 6 1017.0 - 0.0 - - - - - - -
18/10:00pm 22.6 SW 5 7 1017.1 - 0.0 - - - - - - -
18/09:30pm 22.7 S 5 6 1016.8 - 0.0 - - - - - - -
18/09:00pm 21.7 SSE 5 6 1016.6 - 0.0 - - - - - - -
18/08:30pm 22.0 SSE 5 6 1016.4 - 0.0 - - - - - - -
18/08:00pm 21.4 SE 5 6 1016.2 - 0.0 - - - - - - -
18/07:30pm 21.7 SE 5 6 1015.8 - 0.0 - - - - - - -
18/07:00pm 22.2 ESE 4 5 1015.6 - 0.0 - - - - - - -
18/06:30pm 23.3 SE 5 6 1015.5 - 0.0 - - - - - - -
18/06:00pm 24.1 SE 5 7 1015.3 - 0.0 - - - - - - -
18/05:30pm 24.8 SSE 6 8 1015.2 - 0.0 - - - - - - -
18/05:00pm 25.2 ESE 6 8 1015.2 - 0.0 - - - - - - -
18/04:30pm 26.2 SE 6 8 1015.0 - 0.0 - - - - - - -
18/04:00pm 26.8 SSE 7 8 1015.0 - 0.0 - - - - - - -
18/03:30pm 27.1 SE 7 9 1015.2 - 0.0 - - - - - - -
18/03:00pm 27.9 E 6 9 1015.2 - 0.0 Fine Mostly clear 30 - - - -
18/02:30pm 28.8 E 7 9 1015.7 - 0.0 - - - - - - -
18/02:00pm 28.0 E 7 10 1015.8 - 0.0 - - - - - - -
18/01:30pm 28.2 ESE 7 10 1016.3 - 0.0 - - - - - - -
18/01:00pm 28.0 ESE 6 10 1016.6 - 0.0 - - - - - - -
18/12:30pm 27.6 SE 6 9 1017.1 - 0.0 - - - - - - -
18/12:00pm 27.8 ESE 7 9 1017.6 - 0.0 - - - - - - -
18/11:30am 26.9 SE 8 10 1018.1 - 0.0 - - - - - - -
18/11:00am 25.7 SSE 8 10 1018.5 - 0.0 - - - - - - -
18/10:30am 25.5 SSE 9 11 1018.6 - 0.0 - - - - - - -
18/10:00am 24.7 SSE 9 11 1018.6 - 0.0 - - - - - - -
18/09:30am 24.1 SSE 9 10 1018.5 - 0.0 - - - - - - -
18/09:00am 23.4 S 7 9 1018.3 - 0.0 Haze Mostly clear 35 - - - -
18/08:30am 21.9 SW 8 9 1018.2 - 0.0 - - - - - - -
18/08:00am 21.7 SW 7 8 1017.8 - 0.0 - - - - - - -
18/07:30am 21.7 S 5 8 1017.4 - 0.0 - - - - - - -
18/07:00am 21.4 SSE 5 6 1017.2 - 0.0 - - - - - - -
18/06:30am 21.6 SSE 6 7 1016.8 - 0.0 - - - - - - -
18/06:00am 21.7 S 6 8 1016.1 - 0.0 - - - - - - -
18/05:30am 21.6 S 5 7 1015.9 - 0.0 - - - - - - -
18/05:00am 21.6 S 6 7 1015.7 - 0.0 - - - - - - -
18/04:30am 21.7 S 7 8 1015.5 - 0.0 - - - - - - -
18/04:00am 21.7 SW 7 8 1015.5 - 0.0 - - - - - - -
18/03:30am 21.4 WSW 9 9 1015.4 - 0.0 - - - - - - -
18/03:00am 21.5 SW 9 11 1015.4 - 0.0 - - - - - - -
18/02:30am 21.5 SW 9 9 1015.9 - 0.0 - - - - - - -
18/02:00am 21.6 SW 8 9 1016.1 - 0.0 - - - - - - -
18/01:30am 21.6 SW 7 8 1016.3 - 0.0 - - - - - - -
18/01:00am 21.7 SW 8 8 1016.6 - 0.0 - - - - - - -
18/12:30am 21.9 SW 7 8 1016.9 - 0.0 - - - - - - -
18/12:00am 21.9 SW 8 9 1016.8 - 0.0 - - - - - - -
 
Date/Time
EST
Temp

°C
Wind Pressure Rain
since 9am
mm
Weather Cloud Vis
km
Sea
Height
m
Swell
Dir
 
Speed
knots
Gust
knots
hPa Trend Height
m
Period
s
Dir
17/11:30pm 21.6 SSE 5 6 1017.1 - 0.0 - - - - - - -
17/11:00pm 21.5 SE 5 7 1017.2 - 0.0 - - - - - - -
17/10:30pm 21.5 SE 5 6 1017.2 - 0.0 - - - - - - -
17/10:00pm 22.2 SE 6 8 1017.2 - 0.0 - - - - - - -
17/09:30pm 22.9 SE 7 9 1017.1 - 0.0 - - - - - - -
17/09:00pm 23.2 SSE 7 8 1017.0 - 0.0 - - - - - - -
17/08:30pm 23.2 SSE 8 9 1016.6 - 0.0 - - - - - - -
17/08:00pm 23.4 SSE 8 9 1016.3 - 0.0 - - - - - - -
17/07:30pm 23.5 SE 8 10 1016.0 - 0.0 - - - - - - -
17/07:00pm 23.5 SE 7 9 1015.9 - 0.0 - - - - - - -
17/06:30pm 23.4 SE 7 8 1015.6 - 0.0 - - - - - - -
17/06:00pm 23.9 SE 7 9 1015.4 - 0.0 - - - - - - -
17/05:30pm 24.4 SE 7 10 1015.3 - 0.0 - - - - - - -
17/05:00pm 24.8 SSE 8 10 1015.1 - 0.0 - - - - - - -
17/04:30pm 25.3 SE 7 9 1014.9 - 0.0 - - - - - - -
17/04:00pm 25.8 SE 8 11 1014.8 - 0.0 - - - - - - -
17/03:30pm 26.5 SE 7 10 1014.7 - 0.0 - - - - - - -
17/03:00pm 26.9 SE 8 11 1014.6 - 0.0 Smoke Mostly clear 25 - - - -
17/02:30pm 27.1 SE 9 11 1015.0 - 0.0 - - - - - - -
17/02:00pm 27.0 E 15 17 1014.9 - 0.0 - - - - - - -
17/01:30pm 28.0 E 11 15 1015.1 - 0.0 - - - - - - -
17/01:00pm 26.9 SE 10 13 1015.6 - 0.0 - - - - - - -
17/12:30pm 27.2 SE 10 11 1015.9 - 0.0 - - - - - - -
17/12:00pm 26.3 SSE 9 12 1016.4 - 0.0 - - - - - - -
17/11:30am 25.2 SSE 10 13 1016.7 - 0.0 - - - - - - -
17/11:00am 25.4 SSE 11 13 1017.1 - 0.0 - - - - - - -
17/10:30am 25.3 SSE 10 12 1017.4 - 0.0 - - - - - - -
17/10:00am 24.6 SSE 10 13 1017.7 - 0.0 - - - - - - -
17/09:30am 24.1 SSE 10 13 1017.7 - 0.0 - - - - - - -
17/09:00am 23.6 SSE 10 11 1017.5 - 0.0 Haze Mostly clear 25 - - - -
17/08:30am 23.0 SSE 11 15 1017.3 - - - - - - - - -
17/08:00am 22.7 S 11 13 1017.0 - - - - - - - - -
17/07:30am 22.6 S 12 15 1016.6 - - - - - - - - -
17/07:00am 22.2 SSE 11 14 1016.1 - - - - - - - - -
17/06:30am 22.5 S 12 14 1015.7 - - - - - - - - -
17/06:00am 22.5 S 11 13 1015.4 - - - - - - - - -
17/05:30am 22.6 SSE 13 15 1015.2 - - - - - - - - -
17/05:00am 22.6 SSE 13 15 1015.0 - - - - - - - - -
17/04:30am 22.7 SSE 12 13 1014.8 - - - - - - - - -
17/04:00am 22.8 SSE 11 13 1014.7 - - - - - - - - -
17/03:30am 22.6 SSE 10 11 1014.7 - - - - - - - - -
17/03:00am 22.6 SSE 8 9 1014.6 - - - - - - - - -
17/02:30am 22.5 SSE 10 11 1015.0 - - - - - - - - -
17/02:00am 22.6 SSE 10 11 1015.2 - - - - - - - - -
17/01:30am 22.6 ESE 8 9 1015.5 - - - - - - - - -
17/01:00am 22.7 SE 7 9 1015.7 - - - - - - - - -
17/12:30am 22.8 SE 7 9 1015.9 - - - - - - - - -
17/12:00am 22.7 SE 7 9 1016.0 - - - - - - - - -
 
Date/Time
EST
Temp

°C
Wind Pressure Rain
since 9am
mm
Weather Cloud Vis
km
Sea
Height
m
Swell
Dir
 
Speed
knots
Gust
knots
hPa Trend Height
m
Period
s
Dir
16/11:30pm 22.8 SE 7 8 1016.3 - - - - - - - - -
16/11:00pm 23.0 ESE 8 9 1016.4 - - - - - - - - -
16/10:30pm 23.1 ESE 9 10 1016.4 - - - - - - - - -
16/10:00pm 23.2 ESE 9 11 1016.3 - - - - - - - - -
16/09:30pm 23.3 ESE 9 11 1016.3 - - - - - - - - -
16/09:00pm 23.4 ESE 9 13 1015.8 - - - - - - - - -
16/08:30pm 23.6 ESE 11 13 1015.8 - - - - - - - - -
16/08:00pm 23.8 ESE 12 14 1015.6 - - - - - - - - -
16/07:30pm 23.8 ESE 10 12 1015.2 - - - - - - - - -
16/07:00pm 23.8 ESE 11 14 1014.7 - - - - - - - - -
16/06:30pm 23.8 SE 11 13 1014.5 - - - - - - - - -
16/06:00pm 24.2 ESE 10 11 1014.0 - - - - - - - - -
16/05:00pm - - - - - - - - - - - - - -
16/04:30pm 25.8 ESE 10 11 1013.7 - 0.0 - - - - - - -
16/04:00pm 26.5 E 9 12 1013.5 - 0.0 - - - - - - -
16/03:30pm 26.9 E 10 13 1013.5 - 0.0 - - - - - - -
16/02:30pm 27.3 ESE 13 15 1013.9 - 0.0 - - - - - - -
16/02:00pm 28.0 ESE 12 15 1014.0 - 0.0 - - - - - - -
16/01:30pm 28.4 ESE 11 14 1014.3 - 0.0 - - - - - - -
16/01:00pm 27.8 SE 11 14 1014.7 - 0.0 - - - - - - -
16/12:30pm 27.4 SE 10 13 1015.1 - 0.0 - - - - - - -
16/12:00pm 27.6 SE 12 14 1015.7 - 0.0 - - - - - - -
16/11:30am 26.5 SSE 11 13 1016.2 - 0.0 - - - - - - -
16/11:00am 25.8 SSE 11 13 1016.6 - 0.0 - - - - - - -
16/10:30am 25.3 SSE 11 13 1017.0 - 0.0 - - - - - - -
16/10:00am 24.9 SSE 11 13 1017.2 - 0.0 - - - - - - -
16/09:30am 24.6 SSE 11 13 1017.3 - 0.0 - - - - - - -
16/09:00am 24.0 SSE 12 14 1017.2 - 0.0 Distant precip. Mostly clear 15 - - - -
16/08:30am 23.5 S 12 15 1017.2 - 0.0 - - - - - - -
16/08:00am 23.4 SSE 12 14 1016.8 - 0.0 - - - - - - -
16/07:30am 23.1 S 11 14 1016.4 - 0.0 - - - - - - -
16/07:00am 23.0 SSE 11 13 1016.1 - 0.0 - - - - - - -
16/06:30am 23.0 SSE 12 14 1015.7 - 0.0 - - - - - - -
16/06:00am 22.8 SSE 12 14 1015.2 - 0.0 - - - - - - -
16/05:30am 22.7 SSE 11 13 1015.0 - 0.0 - - - - - - -
16/05:00am 22.7 S 12 13 1014.8 - 0.0 - - - - - - -
16/04:30am 22.6 S 9 11 1014.6 - 0.0 - - - - - - -
16/04:00am 22.6 S 7 9 1014.4 - 0.0 - - - - - - -
16/03:30am 22.6 S 8 10 1014.4 - 0.0 - - - - - - -
16/03:00am 22.6 S 9 10 1014.4 - 0.0 - - - - - - -
16/02:30am 22.7 S 11 12 1014.8 - 0.0 - - - - - - -
16/02:00am 22.7 S 9 11 1015.0 - 0.0 - - - - - - -
16/01:30am 22.6 SSE 11 12 1015.2 - 0.0 - - - - - - -
16/01:00am 22.9 SSE 11 12 1015.4 - 0.0 - - - - - - -
16/12:30am 23.2 SE 14 16 1015.5 - 0.0 - - - - - - -
16/12:00am 23.1 ESE 13 16 1015.5 - 0.0 - - - - - - -

Other Formats:

Comma delimited format used in spreadsheet applications
http://www.bom.gov.au/fwo/IDQ60701/IDQ60701.94285.axf

JavaScript Object Notation format (JSON) in row-major order
http://www.bom.gov.au/fwo/IDQ60701/IDQ60701.94285.json